Unidilla, Georgia
Current Conditions -  °F | °C
As of 11:55 PM on Wednesday 22 Oct 2014 (Local Time) from KPXE Reporting Station
Clear Clear  
Wind Chill: 50°   Ceiling: Unl
Heat Index: 50°   Visibility: 10mi
Dew Point: 47°   Wind: 3mph
Humidity: 87%   Direction: 330°NNW
Pressure: 30.11"   Gusts: NA
Location:  32.2533°N, 83.7537°W
Report Text: KPXE 230355Z AUTO 33003KT 10SM CLR 10/08 A3011 RMK AO2 T01010081
Loading
Personal Weather Stations






























Interactive Weather Map New forecast layout! Learn more

10-Day Weather Forecast

Advertisements
Track Severe Weather on mobile